Airfield :
LOGIN :

Register | Disclaimer

   EN    FR    IT 

 










Legend :    VFR   Marginal VFR   IFR   Intensive IFR   Very Intensive IFR
Visi :
Ceiling :
>= 8 km
>= 3000ft
5 to 8 km
1000 to 3000 ft
1500m to 5 km
500 to 1000 ft
800 to 1500m
200 to 500 ft
< 800m
< 200 ft
Symbols :   Thunderstorms  Fog  Heavy snow  Heavy precipitations  Wind > 20 kt
SIGMETs :     Misc.  Thunderstorms  Icing  Turbulence  Mountain Waves  Volcanic Ashes






- Airport Elevation : 19 ft
- IATA code : VAA


EFVA - Vaasa

CURRENT METAR :
  • 050320Z AUTO 16002KT CAVOK 10/08 Q0999

EXPIRED METARs :
  • 050250Z AUTO VRB02KT CAVOK 09/07 Q0999
  • 050220Z AUTO 17003KT CAVOK 08/07 Q0999
  • 050150Z AUTO VRB01KT CAVOK 08/06 Q0999
  • 050120Z AUTO 17003KT CAVOK 08/06 Q0999
  • 050050Z AUTO VRB02KT 9999 BKN034 08/07 Q0999

TAF TAF EFVA
Valid from the 05 at 03:00 until the 06 at 03:00 UTC


050231Z 0503/0603 26005KT CAVOK
BECMG 0520/0522 08010G20KT
TEMPO 0522/0603 4000 SHRA BKN012 SCT020CB



MET'MAP, your aeronautical weather chart ! - Copyright ORBIFLY December 2007 - Disclaimer

ORBIFLY MET'MAP TEAM :

Programming & Development : Alexandra Zaïnal
Concept & original design : Baudouin d'Aumeries
Assistance for programming : Marc-Olivier Méhu
Technical & hardware support : Manuel Goepfert

Contact : metmap@orbifly.com




SOURCES & CREDITS :

   NOAA